Dalhousie, Canada
Current Conditions -  °F | °C
As of 12:33 PM on Saturday 25 Oct 2014 (Local Time) from CZBF Reporting Station
Drizzle Drizzle  
Wind Chill: 38°   Ceiling: 500
Heat Index: 41°   Visibility: 4mi
Dew Point: 41°   Wind: 5mph
Humidity: 100%   Direction: 20°NNE
Pressure: 29.62"   Gusts: NA
Location:  48.06°N, 66.37°W
Report Text: CZBF 251533Z 02004KT 320V060 4SM -DZ BR OVC005 05/05 A2962 RMK ST8 CIG RAG BLN DSAPRD 900 SLP033
Loading
Personal Weather Stations






























Interactive Weather Map
Tropical Storm Tracking
New forecast layout! Learn more

10-Day Weather Forecast

Advertisements
Track Severe Weather on mobile